Taranto / Grottaglie Airport LIBG

Flugplatz Daten

Name: Taranto / Grottaglie Airport

Ident: LIBG

Lat: 40,51750183

Long: 17,40320015

Platzhöhe: 215 ft

IataCode: TAR

City: Grottaglie

Metar

2021/08/05 13:50
LIBG 051350Z 23012KT CAVOK 33/20 Q1007

Taf

2017/11/11 18:24
TAF TAF LIBG 111917Z 1118/1206 CNL
Gewünschte Webcam nicht vorhanden? Dann fügen Sie eine hinzu. Sie wird dann so schnell wie möglich freigeschaltet
Url: Title: